KDTS

Destin Executive Airport

Destin, Florida, USA
METAR KDTS 170053Z 00000KT 10SM CLR 11/08 A3020 RMK AO2 SLP226 T01110083 $
Observed Flight Rules
Dec-17 @ 00:53 UTC (29 minutes ago) Visual Flight Rules
Visibility Clouds
10 miles
  • Clear skies
Temperatures Readings
Current 11°C / 52°F
Dewpoint 8°C / 46°F
Humidity 82%
Altimeter 30.2" Hg
Pressure 1022.6 hPa
Elevation 5
METAR KDTS 170053Z 00000KT 10SM CLR 11/08 A3020 RMK AO2 SLP226 T01110083 $
Observed Flight Rules
Dec-17 @ 00:53 UTC
(29 minutes ago)
VFR
Clouds
  • Clear skies
Temperature Dewpoint
11°C / 52°F 8°C / 46°F
Humidity Altimeter Pressure
82% 30.2" Hg 1022.6 hPa